createdAt,value
2023-05-19T00:00:25.076Z,100019.75
2023-05-19T00:02:51.965Z,100018.94
2023-05-19T00:05:19.189Z,100009.03
2023-05-19T00:07:46.198Z,100020.19
2023-05-19T00:10:13.441Z,100016.88
2023-05-19T00:12:40.382Z,100018.53
2023-05-19T00:15:07.820Z,100010.50
2023-05-19T00:17:34.519Z,100005.53
2023-05-19T00:20:01.552Z,100015.66
2023-05-19T00:22:28.249Z,100016.84
2023-05-19T00:24:54.852Z,100018.69
2023-05-19T00:27:21.442Z,100015.22
2023-05-19T00:29:48.043Z,100016.25
2023-05-19T00:32:15.736Z,100015.22
2023-05-19T00:34:44.854Z,100011.72
2023-05-19T00:37:11.624Z,100011.09
2023-05-19T00:39:38.213Z,100007.81
2023-05-19T00:42:05.861Z,100008.22
2023-05-19T00:44:32.446Z,100010.47
2023-05-19T00:46:59.225Z,100017.06
2023-05-19T00:49:26.695Z,100014.59
2023-05-19T00:51:53.315Z,100009.66
2023-05-19T00:54:20.715Z,100009.25
2023-05-19T00:56:47.523Z,100003.47
2023-05-19T00:59:14.243Z,100000.59
2023-05-19T01:01:40.925Z,100005.13
2023-05-19T01:04:10.031Z,100000.38
2023-05-19T01:06:39.598Z,100010.69
2023-05-19T01:09:06.330Z,100004.09
2023-05-19T01:11:36.078Z,99999.97
2023-05-19T01:14:02.725Z,99995.44
2023-05-19T01:16:32.240Z,100003.47
2023-05-19T01:19:10.897Z,99999.53
2023-05-19T01:22:07.450Z,99990.91
2023-05-19T01:24:37.535Z,99993.56
2023-05-19T01:27:24.968Z,99987.22
2023-05-19T01:30:13.072Z,99983.06
2023-05-19T01:32:41.909Z,99989.66
2023-05-19T01:35:09.886Z,99990.28
2023-05-19T01:37:37.861Z,99983.88
2023-05-19T01:40:08.893Z,99993.16
2023-05-19T01:42:39.908Z,99982.84
2023-05-19T01:45:20.351Z,99993.53
2023-05-19T01:47:52.844Z,99989.22
2023-05-19T01:50:21.106Z,99985.31
2023-05-19T01:52:49.718Z,99985.69
2023-05-19T01:55:16.888Z,99985.88
2023-05-19T01:57:54.708Z,99994.72
2023-05-19T02:00:40.708Z,99986.66
2023-05-19T02:03:07.432Z,99989.56
2023-05-19T02:05:46.243Z,99987.28
2023-05-19T02:08:20.528Z,99987.28
2023-05-19T02:10:58.149Z,99987.88
2023-05-19T02:13:28.725Z,99984.97
2023-05-19T02:15:59.211Z,99984.97
2023-05-19T02:18:29.938Z,99988.66
2023-05-19T02:20:56.676Z,99981.47
2023-05-19T02:23:24.276Z,99976.91
2023-05-19T02:25:50.974Z,99975.72
2023-05-19T02:28:18.411Z,99976.91
2023-05-19T02:30:45.278Z,99970.34
2023-05-19T02:33:12.945Z,99976.69
2023-05-19T02:35:39.664Z,99971.34
2023-05-19T02:38:07.242Z,99966.63
2023-05-19T02:40:34.101Z,99969.09
2023-05-19T02:43:01.712Z,99968.28
2023-05-19T02:45:29.246Z,99966.84
2023-05-19T02:47:57.426Z,99972.59
2023-05-19T02:50:25.204Z,99957.94
2023-05-19T02:52:52.794Z,99963.06
2023-05-19T02:55:19.712Z,99963.28
2023-05-19T02:57:46.540Z,99965.72
2023-05-19T03:00:13.683Z,99967.50
2023-05-19T03:03:10.398Z,99974.31
2023-05-19T03:05:37.281Z,99974.03
2023-05-19T03:08:04.104Z,99976.09
2023-05-19T03:10:31.046Z,99977.44
2023-05-19T03:12:57.793Z,99974.34
2023-05-19T03:15:24.499Z,99984.59
2023-05-19T03:17:52.019Z,99978.81
2023-05-19T03:20:19.058Z,99981.44
2023-05-19T03:22:45.693Z,99981.50
2023-05-19T03:25:12.430Z,99980.28
2023-05-19T03:27:39.068Z,99979.50
2023-05-19T03:30:06.897Z,99981.22
2023-05-19T03:32:38.957Z,99989.25
2023-05-19T03:35:06.167Z,99986.25
2023-05-19T03:37:33.361Z,99977.88
2023-05-19T03:40:00.566Z,99990.88
2023-05-19T03:42:27.908Z,99989.06
2023-05-19T03:44:54.547Z,99989.06
2023-05-19T03:47:21.406Z,99990.56
2023-05-19T03:49:48.099Z,99998.03
2023-05-19T03:52:34.971Z,100000.13
2023-05-19T03:55:20.255Z,99999.53
2023-05-19T03:57:47.686Z,99997.69
2023-05-19T04:00:15.064Z,99997.72
2023-05-19T04:02:42.087Z,100001.81
2023-05-19T04:05:09.383Z,99996.69
2023-05-19T04:07:37.291Z,99994.59
2023-05-19T04:10:05.797Z,99999.56
2023-05-19T04:12:33.114Z,99999.97
2023-05-19T04:14:59.918Z,100009.63
2023-05-19T04:17:27.654Z,100008.50
2023-05-19T04:19:55.287Z,100008.00
2023-05-19T04:22:22.513Z,100001.78
2023-05-19T04:24:50.516Z,99997.97
2023-05-19T04:27:17.821Z,100006.44
2023-05-19T04:29:46.136Z,100002.25
2023-05-19T04:32:17.470Z,100008.47
2023-05-19T04:34:46.451Z,100008.41
2023-05-19T04:37:19.984Z,100006.84
2023-05-19T04:39:46.854Z,100009.06
2023-05-19T04:42:14.529Z,100014.53
2023-05-19T04:44:41.225Z,100009.75
2023-05-19T04:47:09.053Z,100000.91
2023-05-19T04:49:39.027Z,99996.78
2023-05-19T04:52:07.574Z,99998.78
2023-05-19T04:54:37.933Z,100002.84
2023-05-19T04:57:05.630Z,100005.50
2023-05-19T04:59:35.562Z,100002.72
2023-05-19T05:02:02.458Z,100009.66
2023-05-19T05:04:31.460Z,100015.06
2023-05-19T05:06:58.586Z,100014.44
2023-05-19T05:09:26.328Z,100008.53
2023-05-19T05:11:54.230Z,100011.00
2023-05-19T05:14:21.140Z,100005.88
2023-05-19T05:16:48.290Z,100006.41
2023-05-19T05:19:22.205Z,100010.66
2023-05-19T05:21:49.297Z,100008.75
2023-05-19T05:24:16.945Z,100011.28
2023-05-19T05:26:49.454Z,100013.00
2023-05-19T05:29:16.796Z,100007.38
2023-05-19T05:31:43.423Z,100007.41
2023-05-19T05:34:10.887Z,100013.50
2023-05-19T05:36:38.590Z,100012.63
2023-05-19T05:39:09.981Z,100008.59
2023-05-19T05:41:37.945Z,100008.97
2023-05-19T05:44:11.537Z,100011.59
2023-05-19T05:46:41.471Z,100010.78
2023-05-19T05:49:09.159Z,100012.91
2023-05-19T05:51:36.304Z,100017.25
2023-05-19T05:54:06.457Z,100013.44
2023-05-19T05:56:39.116Z,100010.22
2023-05-19T05:59:08.207Z,100013.75
2023-05-19T06:01:38.266Z,100011.22
2023-05-19T06:04:08.246Z,100018.28
2023-05-19T06:06:36.035Z,100015.09
2023-05-19T06:09:03.067Z,100013.50
2023-05-19T06:11:33.157Z,100010.44
2023-05-19T06:14:00.199Z,100019.22
2023-05-19T06:16:51.816Z,100009.63
2023-05-19T06:19:20.058Z,100019.19
2023-05-19T06:21:46.850Z,100019.44
2023-05-19T06:24:14.681Z,100029.34
2023-05-19T06:26:41.837Z,100033.63
2023-05-19T06:29:08.674Z,100025.78
2023-05-19T06:31:35.637Z,100029.69
2023-05-19T06:34:12.379Z,100025.34
2023-05-19T06:36:41.344Z,100023.91
2023-05-19T06:39:08.600Z,100021.25
2023-05-19T06:41:37.340Z,100024.41
2023-05-19T06:44:04.481Z,100025.03
2023-05-19T06:46:33.365Z,100026.53
2023-05-19T06:49:00.160Z,100032.75
2023-05-19T06:51:29.773Z,100027.91
2023-05-19T06:53:57.086Z,100028.81
2023-05-19T06:56:24.285Z,100038.66
2023-05-19T06:58:51.241Z,100038.16
2023-05-19T07:01:20.517Z,100042.59
2023-05-19T07:03:53.289Z,100030.69
2023-05-19T07:06:21.115Z,100046.16
2023-05-19T07:08:48.180Z,100034.44
2023-05-19T07:11:15.260Z,100040.31
2023-05-19T07:13:42.921Z,100034.81
2023-05-19T07:16:10.279Z,100042.53
2023-05-19T07:18:36.996Z,100039.69
2023-05-19T07:21:03.847Z,100043.97
2023-05-19T07:23:31.283Z,100032.25
2023-05-19T07:25:58.097Z,100033.06
2023-05-19T07:28:24.740Z,100034.88
2023-05-19T07:30:51.926Z,100035.41
2023-05-19T07:33:18.658Z,100026.44
2023-05-19T07:35:46.254Z,100027.34
2023-05-19T07:38:12.877Z,100026.44
2023-05-19T07:40:39.568Z,100029.94
2023-05-19T07:43:06.318Z,100026.16
2023-05-19T07:45:34.365Z,100032.44
2023-05-19T07:48:01.127Z,100025.75
2023-05-19T07:50:30.148Z,100022.03
2023-05-19T07:52:56.985Z,100013.75
2023-05-19T07:55:23.662Z,100024.16
2023-05-19T07:57:51.157Z,100020.25
2023-05-19T08:00:18.137Z,100022.50
2023-05-19T08:02:44.955Z,100022.78
2023-05-19T08:05:11.704Z,100011.38
2023-05-19T08:07:38.328Z,100014.03
2023-05-19T08:10:05.240Z,100021.56
2023-05-19T08:12:32.440Z,100026.06
2023-05-19T08:15:01.318Z,100027.38
2023-05-19T08:17:28.549Z,100033.94
2023-05-19T08:19:55.261Z,100032.69
2023-05-19T08:22:21.955Z,100027.78
2023-05-19T08:24:49.794Z,100025.00
2023-05-19T08:27:16.739Z,100032.84
2023-05-19T08:29:43.488Z,100032.03
2023-05-19T08:32:12.971Z,100019.78
2023-05-19T08:34:39.891Z,100024.16
2023-05-19T08:37:07.017Z,100021.69
2023-05-19T08:39:34.802Z,100020.47
2023-05-19T08:42:02.427Z,100017.84
2023-05-19T08:44:30.770Z,100014.44
2023-05-19T08:47:03.325Z,100016.97
2023-05-19T08:49:35.638Z,100010.84
2023-05-19T08:52:17.565Z,100005.38
2023-05-19T08:54:51.021Z,100007.91
2023-05-19T08:57:18.105Z,100008.97
2023-05-19T08:59:44.868Z,99999.81
2023-05-19T09:02:13.325Z,99999.28
2023-05-19T09:04:40.392Z,99997.66
2023-05-19T09:07:07.084Z,99996.22
2023-05-19T09:09:33.720Z,99999.03
2023-05-19T09:12:00.911Z,99998.28
2023-05-19T09:14:27.545Z,100002.81
2023-05-19T09:16:54.165Z,99994.22
2023-05-19T09:19:21.314Z,100002.56
2023-05-19T09:21:59.947Z,99995.91
2023-05-19T09:24:27.092Z,100003.50
2023-05-19T09:26:58.040Z,99995.13
2023-05-19T09:29:26.516Z,99993.72
2023-05-19T09:31:56.030Z,99991.91
2023-05-19T09:34:24.850Z,99983.94
2023-05-19T09:36:53.497Z,99971.88
2023-05-19T09:39:25.319Z,99967.88
2023-05-19T09:41:53.901Z,99973.41
2023-05-19T09:44:20.997Z,99968.34
2023-05-19T09:46:51.197Z,99974.66
2023-05-19T09:49:25.830Z,99961.06
2023-05-19T09:51:56.729Z,99959.41
2023-05-19T09:54:24.856Z,99956.09
2023-05-19T09:57:02.028Z,99958.28
2023-05-19T09:59:32.356Z,99957.31
2023-05-19T10:02:01.300Z,99955.00
2023-05-19T10:04:29.737Z,99961.41
2023-05-19T10:06:59.652Z,99956.41
2023-05-19T10:09:30.582Z,99946.09
2023-05-19T10:11:58.164Z,99956.13
2023-05-19T10:14:27.237Z,99951.19
2023-05-19T10:16:55.599Z,99951.72
2023-05-19T10:19:24.387Z,99948.59
2023-05-19T10:21:51.802Z,99950.97
2023-05-19T10:24:18.973Z,99939.81
2023-05-19T10:26:48.148Z,99944.19
2023-05-19T10:29:17.575Z,99934.38
2023-05-19T10:31:45.314Z,99940.81
2023-05-19T10:34:42.872Z,99934.03
2023-05-19T10:37:31.249Z,99933.25
2023-05-19T10:39:58.388Z,99934.22
2023-05-19T10:42:41.222Z,99932.38
2023-05-19T10:45:18.407Z,99931.72
2023-05-19T10:47:45.263Z,99921.88
2023-05-19T10:50:12.256Z,99930.13
2023-05-19T10:52:40.290Z,99925.59
2023-05-19T10:55:15.715Z,99926.47
2023-05-19T10:57:54.322Z,99926.94
2023-05-19T11:00:27.960Z,99922.75
2023-05-19T11:02:57.926Z,99925.25
2023-05-19T11:05:30.798Z,99910.50
2023-05-19T11:08:06.104Z,99916.97
2023-05-19T11:10:32.763Z,99916.59
2023-05-19T11:12:59.568Z,99914.31
2023-05-19T11:15:27.696Z,99909.00
2023-05-19T11:17:54.744Z,99900.94
2023-05-19T11:20:25.682Z,99895.44
2023-05-19T11:23:09.275Z,99903.13
2023-05-19T11:25:43.090Z,99902.91
2023-05-19T11:28:12.428Z,99905.22
2023-05-19T11:30:42.365Z,99898.59
2023-05-19T11:33:09.159Z,99894.31
2023-05-19T11:35:37.363Z,99896.13
2023-05-19T11:38:04.224Z,99894.03
2023-05-19T11:40:31.118Z,99895.38
2023-05-19T11:42:58.050Z,99891.16
2023-05-19T11:45:28.963Z,99888.31
2023-05-19T11:48:02.517Z,99890.16
2023-05-19T11:50:31.704Z,99886.91
2023-05-19T11:53:00.212Z,99893.56
2023-05-19T11:55:27.202Z,99888.94
2023-05-19T11:58:05.574Z,99883.59
2023-05-19T12:00:37.934Z,99880.91
2023-05-19T12:03:05.352Z,99878.78
2023-05-19T12:05:35.437Z,99873.22
2023-05-19T12:08:06.303Z,99875.63
2023-05-19T12:10:34.351Z,99877.22
2023-05-19T12:13:02.111Z,99883.63
2023-05-19T12:15:28.844Z,99873.06
2023-05-19T12:18:00.878Z,99883.13
2023-05-19T12:20:29.038Z,99876.34
2023-05-19T12:22:56.369Z,99879.97
2023-05-19T12:25:23.807Z,99884.91
2023-05-19T12:27:52.768Z,99882.31
2023-05-19T12:30:26.249Z,99876.47
2023-05-19T12:32:54.233Z,99877.47
2023-05-19T12:35:23.292Z,99878.75
2023-05-19T12:37:50.709Z,99874.63
2023-05-19T12:40:17.558Z,99868.50
2023-05-19T12:42:48.795Z,99863.75
2023-05-19T12:45:15.520Z,99868.34
2023-05-19T12:47:42.177Z,99868.75
2023-05-19T12:50:10.214Z,99867.00
2023-05-19T12:52:45.393Z,99866.00
2023-05-19T12:55:13.979Z,99847.19
2023-05-19T12:57:42.854Z,99859.28
2023-05-19T13:00:17.497Z,99852.78
2023-05-19T13:03:02.954Z,99850.47
2023-05-19T13:05:30.899Z,99847.50
2023-05-19T13:08:13.693Z,99850.56
2023-05-19T13:10:41.789Z,99852.56
2023-05-19T13:13:09.369Z,99841.75
2023-05-19T13:15:38.666Z,99842.38
2023-05-19T13:18:07.150Z,99844.69
2023-05-19T13:20:34.339Z,99831.03
2023-05-19T13:23:01.801Z,99833.22
2023-05-19T13:25:28.469Z,99830.66
2023-05-19T13:27:55.196Z,99832.50
2023-05-19T13:30:22.677Z,99820.66
2023-05-19T13:32:49.633Z,99828.94
2023-05-19T13:35:16.376Z,99817.28
2023-05-19T13:37:43.181Z,99816.72
2023-05-19T13:40:10.794Z,99816.97
2023-05-19T13:42:37.952Z,99812.25
2023-05-19T13:45:05.219Z,99811.19
2023-05-19T13:47:31.854Z,99805.84
2023-05-19T13:49:58.637Z,99803.09
2023-05-19T13:52:27.547Z,99802.56
2023-05-19T13:54:56.640Z,99800.16
2023-05-19T13:57:26.530Z,99820.03
2023-05-19T14:00:01.828Z,99826.66
2023-05-19T14:02:39.304Z,99821.09
2023-05-19T14:05:07.231Z,99821.91
2023-05-19T14:07:35.012Z,99801.41
2023-05-19T14:10:06.889Z,99785.34
2023-05-19T14:12:41.464Z,99779.09
2023-05-19T14:15:19.609Z,99780.34
2023-05-19T14:17:46.314Z,99780.59
2023-05-19T14:20:13.230Z,99781.69
2023-05-19T14:22:39.815Z,99772.41
2023-05-19T14:25:07.166Z,99770.06
2023-05-19T14:27:33.777Z,99768.44
2023-05-19T14:30:00.509Z,99769.09
2023-05-19T14:32:30.080Z,99769.16
2023-05-19T14:34:57.075Z,99776.06
2023-05-19T14:37:24.161Z,99760.56
2023-05-19T14:39:50.825Z,99760.50
2023-05-19T14:42:17.430Z,99777.81
2023-05-19T14:44:44.075Z,99774.53
2023-05-19T14:47:12.334Z,99774.84
2023-05-19T14:49:39.082Z,99771.75
2023-05-19T14:52:05.816Z,99773.47
2023-05-19T14:54:32.454Z,99778.06
2023-05-19T14:56:59.032Z,99774.25
2023-05-19T14:59:25.946Z,99777.28
2023-05-19T15:01:52.556Z,99777.63
2023-05-19T15:04:19.253Z,99779.63
2023-05-19T15:06:48.203Z,99784.28
2023-05-19T15:09:19.125Z,99780.88
2023-05-19T15:11:45.755Z,99784.53
2023-05-19T15:14:12.383Z,99786.47
2023-05-19T15:16:38.970Z,99777.72
2023-05-19T15:19:05.761Z,99786.16
2023-05-19T15:21:32.543Z,99790.81
2023-05-19T15:23:59.198Z,99787.03
2023-05-19T15:26:28.301Z,99788.75
2023-05-19T15:28:56.269Z,99791.16
2023-05-19T15:31:22.985Z,99786.50
2023-05-19T15:33:49.683Z,99792.69
2023-05-19T15:36:17.174Z,99784.34
2023-05-19T15:38:43.964Z,99785.09
2023-05-19T15:41:11.064Z,99786.53
2023-05-19T15:43:37.963Z,99785.16
2023-05-19T15:46:05.127Z,99778.63
2023-05-19T15:48:32.352Z,99783.66
2023-05-19T15:50:59.592Z,99779.66
2023-05-19T15:53:26.689Z,99780.59
2023-05-19T15:55:53.333Z,99785.28
2023-05-19T15:58:20.020Z,99778.50
2023-05-19T16:00:46.705Z,99777.25
2023-05-19T16:03:13.350Z,99785.53
2023-05-19T16:05:40.028Z,99785.38
2023-05-19T16:08:08.452Z,99776.41
2023-05-19T16:10:35.570Z,99783.88
2023-05-19T16:13:02.371Z,99776.59
2023-05-19T16:15:28.983Z,99776.97
2023-05-19T16:17:55.811Z,99782.78
2023-05-19T16:20:26.745Z,99785.75
2023-05-19T16:22:54.209Z,99777.94
2023-05-19T16:25:21.071Z,99779.63
2023-05-19T16:27:47.878Z,99776.09
2023-05-19T16:30:14.697Z,99773.38
2023-05-19T16:32:41.393Z,99783.38
2023-05-19T16:35:08.660Z,99777.03
2023-05-19T16:37:35.362Z,99778.91
2023-05-19T16:40:02.088Z,99772.56
2023-05-19T16:42:28.706Z,99787.19
2023-05-19T16:44:55.555Z,99780.66
2023-05-19T16:47:22.149Z,99777.16
2023-05-19T16:49:48.765Z,99777.16
2023-05-19T16:52:15.407Z,99772.56
2023-05-19T16:54:42.086Z,99777.22
2023-05-19T16:57:09.801Z,99766.47
2023-05-19T16:59:36.525Z,99779.00
2023-05-19T17:02:03.462Z,99776.00
2023-05-19T17:04:31.030Z,99781.19
2023-05-19T17:06:57.780Z,99771.13
2023-05-19T17:09:26.227Z,99772.75
2023-05-19T17:11:53.700Z,99776.31
2023-05-19T17:14:20.890Z,99780.59
2023-05-19T17:16:47.571Z,99776.72
2023-05-19T17:19:14.424Z,99783.72
2023-05-19T17:21:41.480Z,99774.13
2023-05-19T17:24:08.076Z,99779.63
2023-05-19T17:26:34.738Z,99778.81
2023-05-19T17:29:01.338Z,99773.22
2023-05-19T17:31:27.909Z,99768.03
2023-05-19T17:33:54.551Z,99762.69
2023-05-19T17:36:21.763Z,99774.94
2023-05-19T17:38:48.330Z,99769.78
2023-05-19T17:41:15.026Z,99777.19
2023-05-19T17:43:41.863Z,99772.34
2023-05-19T17:46:08.711Z,99777.56
2023-05-19T17:48:36.330Z,99781.63
2023-05-19T17:51:04.593Z,99781.41
2023-05-19T17:53:33.082Z,99783.59
2023-05-19T17:56:01.463Z,99782.25
2023-05-19T17:58:28.839Z,99787.94
2023-05-19T18:00:56.027Z,99781.16
2023-05-19T18:03:23.096Z,99783.88
2023-05-19T18:05:51.058Z,99786.88
2023-05-19T18:08:18.274Z,99783.56
2023-05-19T18:10:46.110Z,99780.56
2023-05-19T18:13:15.720Z,99791.06
2023-05-19T18:15:42.526Z,99785.63
2023-05-19T18:18:10.925Z,99783.94
2023-05-19T18:20:44.244Z,99775.50
2023-05-19T18:23:11.351Z,99784.66
2023-05-19T18:25:38.149Z,99784.59
2023-05-19T18:28:05.022Z,99784.03
2023-05-19T18:30:31.909Z,99784.25
2023-05-19T18:33:02.103Z,99785.44
2023-05-19T18:35:28.999Z,99795.00
2023-05-19T18:37:56.729Z,99781.50
2023-05-19T18:40:23.612Z,99793.88
2023-05-19T18:42:50.560Z,99788.63
2023-05-19T18:45:17.315Z,99793.88
2023-05-19T18:47:43.997Z,99791.91
2023-05-19T18:50:10.793Z,99789.91
2023-05-19T18:52:37.451Z,99798.94
2023-05-19T18:55:04.327Z,99804.63
2023-05-19T18:57:31.033Z,99802.31
2023-05-19T18:59:58.107Z,99799.22
2023-05-19T19:02:24.726Z,99809.66
2023-05-19T19:04:51.413Z,99806.16
2023-05-19T19:07:18.074Z,99810.06
2023-05-19T19:09:44.710Z,99809.53
2023-05-19T19:12:11.324Z,99814.56
2023-05-19T19:14:38.525Z,99822.31
2023-05-19T19:17:05.329Z,99827.31
2023-05-19T19:19:32.270Z,99822.97
2023-05-19T19:21:59.056Z,99815.53
2023-05-19T19:24:26.536Z,99828.44
2023-05-19T19:26:53.147Z,99826.06
2023-05-19T19:29:21.846Z,99820.00
2023-05-19T19:31:48.760Z,99829.88
2023-05-19T19:34:15.670Z,99831.44
2023-05-19T19:36:42.308Z,99834.88
2023-05-19T19:39:09.477Z,99832.69
2023-05-19T19:41:36.671Z,99840.03
2023-05-19T19:44:03.595Z,99847.72
2023-05-19T19:46:30.282Z,99849.50
2023-05-19T19:48:59.217Z,99854.47
2023-05-19T19:51:26.743Z,99851.84
2023-05-19T19:53:53.366Z,99846.09
2023-05-19T19:56:20.386Z,99851.66
2023-05-19T19:58:46.969Z,99851.69
2023-05-19T20:01:13.600Z,99847.50
2023-05-19T20:03:40.266Z,99846.84
2023-05-19T20:06:07.637Z,99852.84
2023-05-19T20:08:34.259Z,99848.19
2023-05-19T20:11:00.916Z,99855.31
2023-05-19T20:13:27.527Z,99854.03
2023-05-19T20:15:54.256Z,99853.09
2023-05-19T20:18:20.903Z,99866.25
2023-05-19T20:20:47.575Z,99863.66
2023-05-19T20:23:16.223Z,99859.59
2023-05-19T20:25:54.790Z,99859.69
2023-05-19T20:28:29.661Z,99857.00
2023-05-19T20:30:56.300Z,99858.19
2023-05-19T20:33:22.973Z,99859.59
2023-05-19T20:35:49.585Z,99853.00
2023-05-19T20:38:16.351Z,99858.41
2023-05-19T20:40:43.021Z,99853.03
2023-05-19T20:43:09.950Z,99858.41
2023-05-19T20:45:36.798Z,99850.09
2023-05-19T20:48:03.893Z,99850.09
2023-05-19T20:50:31.865Z,99858.06
2023-05-19T20:52:58.710Z,99853.81
2023-05-19T20:55:25.496Z,99855.69
2023-05-19T20:57:52.164Z,99849.13
2023-05-19T21:00:19.023Z,99845.63
2023-05-19T21:02:45.732Z,99845.63
2023-05-19T21:05:12.558Z,99845.88
2023-05-19T21:07:39.275Z,99850.06
2023-05-19T21:10:06.524Z,99842.44
2023-05-19T21:12:34.289Z,99847.53
2023-05-19T21:15:01.882Z,99837.25
2023-05-19T21:17:28.643Z,99840.97
2023-05-19T21:20:00.267Z,99848.91
2023-05-19T21:22:27.419Z,99851.44
2023-05-19T21:24:54.400Z,99842.41
2023-05-19T21:27:21.382Z,99844.63
2023-05-19T21:29:52.859Z,99845.75
2023-05-19T21:32:21.179Z,99843.06
2023-05-19T21:34:47.816Z,99849.25
2023-05-19T21:37:16.350Z,99845.16
2023-05-19T21:39:44.360Z,99857.31
2023-05-19T21:42:11.144Z,99865.63
2023-05-19T21:44:37.836Z,99859.63
2023-05-19T21:47:04.511Z,99856.81
2023-05-19T21:49:31.471Z,99860.56
2023-05-19T21:51:58.385Z,99849.66
2023-05-19T21:54:27.173Z,99853.41
2023-05-19T21:56:53.816Z,99851.03
2023-05-19T21:59:23.171Z,99861.16
2023-05-19T22:01:51.430Z,99859.50
2023-05-19T22:04:21.068Z,99857.28
2023-05-19T22:06:47.765Z,99851.91
2023-05-19T22:09:14.399Z,99856.81
2023-05-19T22:11:41.261Z,99855.13
2023-05-19T22:14:07.931Z,99852.34
2023-05-19T22:16:34.942Z,99860.91
2023-05-19T22:19:01.702Z,99859.50
2023-05-19T22:21:28.473Z,99860.78
2023-05-19T22:23:55.105Z,99858.59
2023-05-19T22:26:22.127Z,99861.88
2023-05-19T22:28:50.520Z,99863.06
2023-05-19T22:31:17.659Z,99859.91
2023-05-19T22:33:44.373Z,99865.06
2023-05-19T22:36:11.131Z,99856.19
2023-05-19T22:38:37.857Z,99860.06
2023-05-19T22:41:04.689Z,99867.44
2023-05-19T22:43:31.454Z,99865.72
2023-05-19T22:45:58.145Z,99866.53
2023-05-19T22:48:26.286Z,99874.50
2023-05-19T22:50:52.885Z,99865.31
2023-05-19T22:53:19.499Z,99864.00
2023-05-19T22:55:46.235Z,99862.00
2023-05-19T22:58:12.836Z,99871.38
2023-05-19T23:00:39.427Z,99859.53
2023-05-19T23:03:06.165Z,99864.56
2023-05-19T23:05:33.025Z,99850.75
2023-05-19T23:07:59.739Z,99866.06
2023-05-19T23:10:26.386Z,99862.78
2023-05-19T23:12:53.085Z,99860.22
2023-05-19T23:15:19.770Z,99855.44
2023-05-19T23:17:46.420Z,99848.44
2023-05-19T23:20:13.490Z,99850.22
2023-05-19T23:22:40.126Z,99842.81
2023-05-19T23:25:07.859Z,99840.59
2023-05-19T23:27:35.596Z,99841.25
2023-05-19T23:30:02.901Z,99848.16
2023-05-19T23:32:29.611Z,99838.19
2023-05-19T23:34:56.328Z,99830.13
2023-05-19T23:37:22.957Z,99841.78
2023-05-19T23:39:49.554Z,99843.88
2023-05-19T23:42:16.308Z,99847.97
2023-05-19T23:44:42.955Z,99841.72
2023-05-19T23:47:10.843Z,99840.47
2023-05-19T23:49:37.506Z,99835.88
2023-05-19T23:52:04.129Z,99841.72
2023-05-19T23:54:31.065Z,99839.25
2023-05-19T23:56:58.476Z,99836.34
2023-05-19T23:59:25.328Z,99832.69
